»·PEaware :: GSA1337 KSBA-KSAN

GSA1337 :: KSBA-KSAN

FLIGHT INFORMATION

Flight Status: Arrived
Operator:
Global Sim Alliance
More flights by this operator :: More flights under this callsign
Pilot: Brandon G. (13)
Aircraft: BOEING 737-800
(B738)
More flights by this aircraft type
Origin: KSBA Santa Barbara Mun
United States
Destination: KSAN San Diego Intl-Lindbergh
United States
More flights between these airports :: More routes between these airports
Route: +KWANG VTU V208 SXC V208 LAX118R CARDI MZB320R MZB
File this flight plan on PilotEdge
Remarks:
Altitude:
(Current/Filed)
11,000ft
Speed:
(Current/Filed)
425kts
Departed: 01-Jan-18 09:49 PM
Arrived: 01-Jan-18 10:30 PM
Distance/Time
Traveled:
167nm/0:41
Distance/Time
To Go:
Arrived

Flight Plot

Page will automatically refresh every two minutes.


Map Options




Map Legend


Flown Route
Filed Route
Departure Airport
Arrival Airport
Navaid (VOR, NDB)
Fix

Horizontal Profiles

Position Reports

Time Latitude Longitude Heading Altitude Ground
Speed
01-Jan-18 21:08 34.424886 -119.837172 115 15ft 0kts
01-Jan-18 21:09 34.424886 -119.837172 115 15ft 0kts
01-Jan-18 21:10 34.424886 -119.837172 115 15ft 0kts
01-Jan-18 21:11 34.424886 -119.837172 115 15ft 0kts
01-Jan-18 21:12 34.424886 -119.837172 115 15ft 0kts
01-Jan-18 21:13 34.424886 -119.837172 115 15ft 0kts
01-Jan-18 21:14 34.424886 -119.837172 115 15ft 0kts
01-Jan-18 21:15 34.424886 -119.837172 115 15ft 0kts
01-Jan-18 21:16 34.424886 -119.837172 115 15ft 0kts
01-Jan-18 21:17 34.424886 -119.837172 115 15ft 0kts
01-Jan-18 21:18 34.424886 -119.837172 115 15ft 0kts
01-Jan-18 21:19 34.424886 -119.837172 115 15ft 0kts
01-Jan-18 21:20 34.424886 -119.837172 115 15ft 0kts
01-Jan-18 21:21 34.424886 -119.837172 115 15ft 0kts
01-Jan-18 21:22 34.424886 -119.837172 115 15ft 0kts
01-Jan-18 21:23 34.424886 -119.837172 115 15ft 0kts
01-Jan-18 21:24 34.424886 -119.837172 115 15ft 0kts
01-Jan-18 21:25 34.424886 -119.837172 115 15ft 0kts
01-Jan-18 21:26 34.424886 -119.837172 115 15ft 0kts
01-Jan-18 21:27 34.424886 -119.837172 115 15ft 0kts
01-Jan-18 21:28 34.424886 -119.837172 115 15ft 0kts
01-Jan-18 21:29 34.424886 -119.837172 115 15ft 0kts
01-Jan-18 21:30 34.424886 -119.837172 115 15ft 0kts
01-Jan-18 21:31 34.424886 -119.837172 115 15ft 0kts
01-Jan-18 21:32 34.424886 -119.837172 115 15ft 0kts
01-Jan-18 21:33 34.424886 -119.837172 115 15ft 0kts
01-Jan-18 21:34 34.424886 -119.837172 115 15ft 0kts
01-Jan-18 21:35 34.424886 -119.837172 115 15ft 0kts
01-Jan-18 21:36 34.424886 -119.837172 115 15ft 0kts
01-Jan-18 21:37 34.424886 -119.837172 115 15ft 0kts
01-Jan-18 21:38 34.424886 -119.837172 115 15ft 0kts
01-Jan-18 21:39 34.424886 -119.837172 115 15ft 0kts
01-Jan-18 21:40 34.424886 -119.837172 115 15ft 0kts
01-Jan-18 21:41 34.424886 -119.837172 115 15ft 0kts
01-Jan-18 21:42 34.424841 -119.837588 45 16ft 2kts
01-Jan-18 21:43 34.424494 -119.837679 344 16ft 0kts
01-Jan-18 21:44 34.424494 -119.837679 344 16ft 0kts
01-Jan-18 21:45 34.424494 -119.837679 344 16ft 0kts
01-Jan-18 21:46 34.424494 -119.837679 344 16ft 0kts
01-Jan-18 21:47 34.424494 -119.837679 344 16ft 0kts
01-Jan-18 21:48 34.424494 -119.837679 344 16ft 0kts
01-Jan-18 21:49 34.424758 -119.837764 344 16ft 7kts
01-Jan-18 21:50 34.426729 -119.837122 88 14ft 8kts
01-Jan-18 21:51 34.426999 -119.834633 2 14ft 0kts
01-Jan-18 21:52 34.426999 -119.834633 2 14ft 0kts
01-Jan-18 21:53 34.426999 -119.834633 2 14ft 0kts
01-Jan-18 21:54 34.427233 -119.834640 355 14ft 6kts
01-Jan-18 21:55 34.427766 -119.841983 269 18ft 103kts
01-Jan-18 21:56 34.424881 -119.895229 264 2744ft 171kts
01-Jan-18 21:57 34.414539 -119.963792 231 3081ft 244kts
01-Jan-18 21:58 34.350541 -119.969696 152 6309ft 271kts
01-Jan-18 21:59 34.285148 -119.929897 152 7980ft 278kts
01-Jan-18 22:00 34.226003 -119.874225 123 9723ft 280kts
01-Jan-18 22:01 34.177152 -119.789139 123 10992ft 344kts
01-Jan-18 22:02 34.120181 -119.690139 123 10984ft 376kts
01-Jan-18 22:03 34.061000 -119.587605 123 10987ft 375kts
01-Jan-18 22:04 34.001767 -119.485229 123 10983ft 375kts
01-Jan-18 22:05 33.942120 -119.382414 123 10913ft 376kts
01-Jan-18 22:06 33.886246 -119.286436 124 10824ft 377kts
01-Jan-18 22:07 33.825953 -119.183215 124 10807ft 377kts
01-Jan-18 22:08 33.765853 -119.080509 124 10808ft 377kts
01-Jan-18 22:09 33.705479 -118.977626 124 10847ft 379kts
01-Jan-18 22:10 33.644638 -118.874339 124 10935ft 382kts
01-Jan-18 22:11 33.583094 -118.770075 124 10981ft 384kts
01-Jan-18 22:12 33.521530 -118.666041 124 10981ft 384kts
01-Jan-18 22:13 33.459698 -118.561971 124 10981ft 384kts
01-Jan-18 22:14 33.397922 -118.458253 124 10981ft 384kts
01-Jan-18 22:15 33.364010 -118.346149 97 10983ft 382kts
01-Jan-18 22:16 33.349706 -118.227042 98 10995ft 380kts
01-Jan-18 22:17 33.333189 -118.102511 99 10989ft 379kts
01-Jan-18 22:18 33.316568 -117.978649 98 11024ft 379kts
01-Jan-18 22:19 33.300142 -117.855194 98 11024ft 377kts
01-Jan-18 22:20 33.283715 -117.732180 99 11026ft 377kts
01-Jan-18 22:21 33.265051 -117.609949 100 11026ft 376kts
01-Jan-18 22:22 33.208021 -117.509491 134 10979ft 379kts
01-Jan-18 22:23 33.134339 -117.421142 141 10959ft 379kts
01-Jan-18 22:24 33.051492 -117.350125 116 10939ft 375kts
01-Jan-18 22:25 32.984977 -117.282510 165 9713ft 324kts
01-Jan-18 22:26 32.904877 -117.260161 165 8372ft 277kts
01-Jan-18 22:27 32.833461 -117.239116 163 7379ft 265kts
01-Jan-18 22:28 32.796291 -117.173324 101 6979ft 261kts
01-Jan-18 22:29 32.784119 -117.097301 100 6466ft 241kts
01-Jan-18 22:30 32.765899 -117.009935 106 5414ft 311kts
01-Jan-18 22:31 32.719162 -116.949052 196 4392ft 254kts
01-Jan-18 22:32 32.690309 -117.009789 288 3229ft 221kts
01-Jan-18 22:33 32.705458 -117.072318 284 2003ft 190kts
01-Jan-18 22:34 32.717991 -117.128643 284 994ft 159kts
01-Jan-18 22:35 32.730421 -117.177092 285 163ft 149kts
01-Jan-18 22:36 32.734815 -117.199171 258 17ft 0kts
01-Jan-18 22:37 32.734815 -117.199171 258 17ft 0kts
01-Jan-18 22:38 32.733513 -117.200225 259 17ft 7kts
01-Jan-18 22:39 32.733462 -117.200666 263 17ft 0kts
01-Jan-18 22:40 32.733462 -117.200666 263 17ft 0kts
01-Jan-18 22:41 32.733462 -117.200666 263 17ft 0kts
01-Jan-18 22:42 32.733462 -117.200666 263 17ft 0kts
01-Jan-18 22:43 32.733462 -117.200666 263 17ft 0kts
01-Jan-18 22:44 32.733462 -117.200666 263 17ft 0kts
01-Jan-18 22:45 32.733462 -117.200666 263 17ft 0kts

Navigation Log

Ident Type
Flight plan parsing failed, navigation log unavailable